Thomson Dream — 9HA2381 — position and weather

sailwx.info

Track history (hours):
 
Tides and Currents Weather Stations Pressure Air Temp Water Temp Dewpoint Dewpoint Depression Visibility Wind Speed Wind Dir Waves Ship Positions

Thomson Dream

Last reported at 2014-Oct-20 16:28 UTC. Time now 2014-Oct-22 13:45 UTC.
Position N 35°58' W 005°34'.

Length 243 m; draft 7.6 m.

Type: Ship. MMSI: 248480975.

Date/timePositionNaut miles runAvg speedWind from/ knotsBaromVisibWave heightAir tempDewpointWater temp
2014-Oct-20 16:28N 35°58' W 005°34'1213.2
2014-Oct-20 15:34N 36°06' W 005°23'3 0.3
2014-Oct-20 05:33N 36°09' W 005°22'6 5.6
2014-Oct-20 04:33N 36°05' W 005°17'22315.9
2014-Oct-19 14:33N 36°55' W 000°46'1010.3
2014-Oct-19 13:33N 37°01' W 000°36'1110.5
2014-Oct-19 12:33N 37°09' W 000°27'1110.6
2014-Oct-19 11:33N 37°17' W 000°18'1110.6
2014-Oct-19 10:33N 37°26' W 000°10'1111.0
2014-Oct-19 09:33N 37°34' W 000°01'1111.2
2014-Oct-19 08:32N 37°42' E 000°09'1211.3
2014-Oct-19 07:27N 37°51' E 000°20'1415.5
2014-Oct-19 06:31N 38°00' E 000°34'1717.8
2014-Oct-19 05:34N 38°10' E 000°52'1716.4
2014-Oct-19 04:33N 38°19' E 001°09'1616.3
2014-Oct-19 03:34N 38°29' E 001°26'1616.2
2014-Oct-19 02:33N 38°39' E 001°42'5616.6
2014-Oct-18 23:13N 39°21' E 002°29'14 2.1
2014-Oct-18 16:33N 39°33' E 002°38'0 0.0
2014-Oct-18 15:33N 39°33' E 002°38'0 0.0
2014-Oct-18 14:33N 39°33' E 002°38'0 0.0
2014-Oct-18 13:33N 39°33' E 002°38'0 0.0
2014-Oct-18 12:33N 39°33' E 002°38'0 0.0
2014-Oct-18 11:33N 39°33' E 002°38'0 0.0
2014-Oct-18 10:33N 39°33' E 002°38'0 0.0
2014-Oct-18 09:21N 39°33' E 002°38'0 0.0
2014-Oct-18 08:18N 39°33' E 002°38'0 0.0
2014-Oct-18 07:33N 39°33' E 002°38'0 0.0
2014-Oct-18 06:33N 39°33' E 002°38'0 0.0
2014-Oct-18 05:33N 39°33' E 002°38'0 0.0
2014-Oct-18 04:33N 39°33' E 002°38'0 0.2
2014-Oct-18 03:33N 39°33' E 002°38'8 7.7
2014-Oct-18 02:33N 39°26' E 002°34'1312.5
2014-Oct-18 01:33N 39°31' E 002°19'9 9.3
2014-Oct-18 00:33N 39°40' E 002°16'1010.1
2014-Oct-17 23:33N 39°50' E 002°20'1615.8
2014-Oct-17 22:33N 40°05' E 002°25'1616.1
2014-Oct-17 21:33N 40°21' E 002°30'1616.0
2014-Oct-17 20:33N 40°36' E 002°34'1615.8
2014-Oct-17 19:33N 40°52' E 002°38'1615.9
2014-Oct-17 18:33N 41°06' E 002°47'1616.0
2014-Oct-17 17:33N 41°21' E 002°55'1716.6
2014-Oct-17 16:33N 41°37' E 003°02'1414.1
2014-Oct-17 15:32N 41°51' E 003°07'0 0.1
2014-Oct-17 14:28N 41°51' E 003°07'0 0.0
2014-Oct-17 13:04N 41°51' E 003°07'0 0.0
2014-Oct-17 06:15N 41°50' E 003°07'2011.5
2014-Oct-17 04:31N 41°49' E 003°34'1515.6
2014-Oct-17 03:33N 41°49' E 003°54'1515.0
2014-Oct-17 02:33N 41°50' E 004°14'  
2014-Oct-14 18:33N 40°40' E 013°38'1616.1
2014-Oct-14 17:33N 40°39' E 013°59'200 7.1
2014-Oct-13 13:33N 40°56' E 009°36'4 3.7
2014-Oct-13 12:31N 40°55' E 009°31'0 0.0
2014-Oct-13 09:31N 40°55' E 009°31'0 0.0
2014-Oct-13 08:31N 40°55' E 009°31'0 0.0
2014-Oct-13 05:31N 40°55' E 009°31'3 3.2
2014-Oct-13 04:34N 40°55' E 009°35'1111.0
2014-Oct-13 03:33N 41°06' E 009°41'1716.8
2014-Oct-13 02:33N 41°20' E 009°29'8311.8
2014-Oct-12 19:31N 40°58' E 007°42'1010.6
2014-Oct-12 18:33N 40°53' E 007°29'1110.9
2014-Oct-12 17:33N 40°48' E 007°17'1110.8
2014-Oct-12 16:33N 40°43' E 007°04'1110.7
2014-Oct-12 15:32N 40°38' E 006°51'1110.7
2014-Oct-12 14:33N 40°33' E 006°39'1111.3
2014-Oct-12 13:33N 40°28' E 006°26'1211.4
2014-Oct-12 12:33N 40°23' E 006°13'1110.9
2014-Oct-12 11:32N 40°17' E 005°60'1111.4
2014-Oct-12 10:33N 40°12' E 005°47'1111.3
2014-Oct-12 09:34N 40°07' E 005°34'1511.0
2014-Oct-12 08:12N 40°00' E 005°16'5615.3
2014-Oct-12 04:32N 39°34' E 004°12'1616.2
2014-Oct-12 03:33N 39°26' E 003°54'1616.2
2014-Oct-12 02:33N 39°19' E 003°35'1615.8
2014-Oct-12 01:33N 39°12' E 003°17'1615.7
2014-Oct-12 00:33N 39°05' E 002°59'1313.4
2014-Oct-11 23:33N 39°14' E 002°46'1616.1
2014-Oct-11 22:33N 39°29' E 002°39'5 4.6
2014-Oct-11 21:31N 39°33' E 002°38'0 0.0
2014-Oct-11 20:31N 39°33' E 002°38'0 0.0
2014-Oct-11 19:31N 39°33' E 002°38'0 0.0
2014-Oct-11 18:31N 39°33' E 002°38'0 0.0
2014-Oct-11 17:31N 39°33' E 002°38'0 0.0
2014-Oct-11 16:13N 39°33' E 002°38'0 0.0
2014-Oct-11 15:31N 39°33' E 002°38'0 0.0
2014-Oct-11 14:31N 39°33' E 002°38'0 0.0
2014-Oct-11 12:31N 39°33' E 002°38'0 0.0
2014-Oct-11 11:31N 39°33' E 002°38'0 0.0
2014-Oct-11 10:13N 39°33' E 002°38'0 0.0
2014-Oct-11 09:31N 39°33' E 002°38'0 0.0
2014-Oct-11 08:31N 39°33' E 002°38'0 0.0
2014-Oct-11 07:31N 39°33' E 002°38'0 0.0
2014-Oct-11 06:31N 39°33' E 002°38'0 0.0
2014-Oct-11 05:31N 39°33' E 002°38'0 0.0
2014-Oct-11 04:31N 39°33' E 002°38'0 0.2
2014-Oct-11 03:34N 39°33' E 002°38'8 7.6
2014-Oct-11 02:33N 39°26' E 002°34'1212.5
2014-Oct-11 01:34N 39°31' E 002°19'1110.6
2014-Oct-11 00:33N 39°41' E 002°14'1110.7
2014-Oct-10 23:33N 39°51' E 002°14'1010.4
2014-Oct-10 22:33N 40°02' E 002°14'1010.1
2014-Oct-10 21:33N 40°12' E 002°13'1010.3
2014-Oct-10 20:33N 40°22' E 002°14'1110.6
2014-Oct-10 19:33N 40°33' E 002°14'1616.2
2014-Oct-10 18:33N 40°49' E 002°11'1716.6
2014-Oct-10 17:33N 41°05' E 002°14'1515.2
2014-Oct-10 16:33N 41°21' E 002°12'  
Track history (hours):
 
Tides and Currents Weather Stations Pressure Air Temp Water Temp Dewpoint Dewpoint Depression Visibility Wind Speed Wind Dir Waves Ship Positions

Thomson Dream

Last reported at 2014-Oct-20 16:28 UTC. Time now 2014-Oct-22 13:45 UTC.
Position N 35°58' W 005°34'.

Length 243 m; draft 7.6 m.

Type: Ship. MMSI: 248480975.

Date/timePositionNaut miles runAvg speedWind from/ knotsBaromVisibWave heightAir tempDewpointWater temp
2014-Oct-20 16:28N 35°58' W 005°34'1213.2
2014-Oct-20 15:34N 36°06' W 005°23'3 0.3
2014-Oct-20 05:33N 36°09' W 005°22'6 5.6
2014-Oct-20 04:33N 36°05' W 005°17'22315.9
2014-Oct-19 14:33N 36°55' W 000°46'1010.3
2014-Oct-19 13:33N 37°01' W 000°36'1110.5
2014-Oct-19 12:33N 37°09' W 000°27'1110.6
2014-Oct-19 11:33N 37°17' W 000°18'1110.6
2014-Oct-19 10:33N 37°26' W 000°10'1111.0
2014-Oct-19 09:33N 37°34' W 000°01'1111.2
2014-Oct-19 08:32N 37°42' E 000°09'1211.3
2014-Oct-19 07:27N 37°51' E 000°20'1415.5
2014-Oct-19 06:31N 38°00' E 000°34'1717.8
2014-Oct-19 05:34N 38°10' E 000°52'1716.4
2014-Oct-19 04:33N 38°19' E 001°09'1616.3
2014-Oct-19 03:34N 38°29' E 001°26'1616.2
2014-Oct-19 02:33N 38°39' E 001°42'5616.6
2014-Oct-18 23:13N 39°21' E 002°29'14 2.1
2014-Oct-18 16:33N 39°33' E 002°38'0 0.0
2014-Oct-18 15:33N 39°33' E 002°38'0 0.0
2014-Oct-18 14:33N 39°33' E 002°38'0 0.0
2014-Oct-18 13:33N 39°33' E 002°38'0 0.0
2014-Oct-18 12:33N 39°33' E 002°38'0 0.0
2014-Oct-18 11:33N 39°33' E 002°38'0 0.0
2014-Oct-18 10:33N 39°33' E 002°38'0 0.0
2014-Oct-18 09:21N 39°33' E 002°38'0 0.0
2014-Oct-18 08:18N 39°33' E 002°38'0 0.0
2014-Oct-18 07:33N 39°33' E 002°38'0 0.0
2014-Oct-18 06:33N 39°33' E 002°38'0 0.0
2014-Oct-18 05:33N 39°33' E 002°38'0 0.0
2014-Oct-18 04:33N 39°33' E 002°38'0 0.2
2014-Oct-18 03:33N 39°33' E 002°38'8 7.7
2014-Oct-18 02:33N 39°26' E 002°34'1312.5
2014-Oct-18 01:33N 39°31' E 002°19'9 9.3
2014-Oct-18 00:33N 39°40' E 002°16'1010.1
2014-Oct-17 23:33N 39°50' E 002°20'1615.8
2014-Oct-17 22:33N 40°05' E 002°25'1616.1
2014-Oct-17 21:33N 40°21' E 002°30'1616.0
2014-Oct-17 20:33N 40°36' E 002°34'1615.8
2014-Oct-17 19:33N 40°52' E 002°38'1615.9
2014-Oct-17 18:33N 41°06' E 002°47'1616.0
2014-Oct-17 17:33N 41°21' E 002°55'1716.6
2014-Oct-17 16:33N 41°37' E 003°02'1414.1
2014-Oct-17 15:32N 41°51' E 003°07'0 0.1
2014-Oct-17 14:28N 41°51' E 003°07'0 0.0
2014-Oct-17 13:04N 41°51' E 003°07'0 0.0
2014-Oct-17 06:15N 41°50' E 003°07'2011.5
2014-Oct-17 04:31N 41°49' E 003°34'1515.6
2014-Oct-17 03:33N 41°49' E 003°54'1515.0
2014-Oct-17 02:33N 41°50' E 004°14'  
2014-Oct-14 18:33N 40°40' E 013°38'1616.1
2014-Oct-14 17:33N 40°39' E 013°59'200 7.1
2014-Oct-13 13:33N 40°56' E 009°36'4 3.7
2014-Oct-13 12:31N 40°55' E 009°31'0 0.0
2014-Oct-13 09:31N 40°55' E 009°31'0 0.0
2014-Oct-13 08:31N 40°55' E 009°31'0 0.0
2014-Oct-13 05:31N 40°55' E 009°31'3 3.2
2014-Oct-13 04:34N 40°55' E 009°35'1111.0
2014-Oct-13 03:33N 41°06' E 009°41'1716.8
2014-Oct-13 02:33N 41°20' E 009°29'8311.8
2014-Oct-12 19:31N 40°58' E 007°42'1010.6
2014-Oct-12 18:33N 40°53' E 007°29'1110.9
2014-Oct-12 17:33N 40°48' E 007°17'1110.8
2014-Oct-12 16:33N 40°43' E 007°04'1110.7
2014-Oct-12 15:32N 40°38' E 006°51'1110.7
2014-Oct-12 14:33N 40°33' E 006°39'1111.3
2014-Oct-12 13:33N 40°28' E 006°26'1211.4
2014-Oct-12 12:33N 40°23' E 006°13'1110.9
2014-Oct-12 11:32N 40°17' E 005°60'1111.4
2014-Oct-12 10:33N 40°12' E 005°47'1111.3
2014-Oct-12 09:34N 40°07' E 005°34'1511.0
2014-Oct-12 08:12N 40°00' E 005°16'5615.3
2014-Oct-12 04:32N 39°34' E 004°12'1616.2
2014-Oct-12 03:33N 39°26' E 003°54'1616.2
2014-Oct-12 02:33N 39°19' E 003°35'1615.8
2014-Oct-12 01:33N 39°12' E 003°17'1615.7
2014-Oct-12 00:33N 39°05' E 002°59'1313.4
2014-Oct-11 23:33N 39°14' E 002°46'1616.1
2014-Oct-11 22:33N 39°29' E 002°39'5 4.6
2014-Oct-11 21:31N 39°33' E 002°38'0 0.0
2014-Oct-11 20:31N 39°33' E 002°38'0 0.0
2014-Oct-11 19:31N 39°33' E 002°38'0 0.0
2014-Oct-11 18:31N 39°33' E 002°38'0 0.0
2014-Oct-11 17:31N 39°33' E 002°38'0 0.0
2014-Oct-11 16:13N 39°33' E 002°38'0 0.0
2014-Oct-11 15:31N 39°33' E 002°38'0 0.0
2014-Oct-11 14:31N 39°33' E 002°38'0 0.0
2014-Oct-11 12:31N 39°33' E 002°38'0 0.0
2014-Oct-11 11:31N 39°33' E 002°38'0 0.0
2014-Oct-11 10:13N 39°33' E 002°38'0 0.0
2014-Oct-11 09:31N 39°33' E 002°38'0 0.0
2014-Oct-11 08:31N 39°33' E 002°38'0 0.0
2014-Oct-11 07:31N 39°33' E 002°38'0 0.0
2014-Oct-11 06:31N 39°33' E 002°38'0 0.0
2014-Oct-11 05:31N 39°33' E 002°38'0 0.0
2014-Oct-11 04:31N 39°33' E 002°38'0 0.2
2014-Oct-11 03:34N 39°33' E 002°38'8 7.6
2014-Oct-11 02:33N 39°26' E 002°34'1212.5
2014-Oct-11 01:34N 39°31' E 002°19'1110.6
2014-Oct-11 00:33N 39°41' E 002°14'1110.7
2014-Oct-10 23:33N 39°51' E 002°14'1010.4
2014-Oct-10 22:33N 40°02' E 002°14'1010.1
2014-Oct-10 21:33N 40°12' E 002°13'1010.3
2014-Oct-10 20:33N 40°22' E 002°14'1110.6
2014-Oct-10 19:33N 40°33' E 002°14'1616.2
2014-Oct-10 18:33N 40°49' E 002°11'1716.6
2014-Oct-10 17:33N 41°05' E 002°14'1515.2
2014-Oct-10 16:33N 41°21' E 002°12'  

Dump ship's entire track history